Time;durP1;ratioP1;P1;durP2;ratioP2;P2;SDS_P1;SDS_P2;PMS_P1;PMS_P2;Temp;Humidity;BMP_temperature;BMP_pressure;BME280_temperature;BME280_humidity;BME280_pressure;Samples;Min_cycle;Max_cycle;Signal;HPM_P1;HPM_P2
2023/01/08 00:00:54;;;;;;;4.80;1.60;;;;;;;16.71;52.82;100347.69;6155952;23;20025;-34
2023/01/08 00:03:20;;;;;;;3.60;1.60;;;;;;;16.71;52.79;100345.00;6156470;23;20021;-34
2023/01/08 00:05:47;;;;;;;4.43;1.75;;;;;;;16.72;53.20;100344.03;6155641;23;20022;-34
2023/01/08 00:08:14;;;;;;;3.20;1.67;;;;;;;16.72;52.75;100341.34;6155349;23;20349;-34
2023/01/08 00:10:41;;;;;;;4.38;1.92;;;;;;;16.73;52.70;100352.94;6152346;23;20264;-35
2023/01/08 00:13:08;;;;;;;3.53;1.63;;;;;;;16.72;53.05;100344.03;6154395;23;20029;-34
2023/01/08 00:15:34;;;;;;;3.47;1.63;;;;;;;16.72;52.84;100346.72;6155975;23;20029;-35
2023/01/08 00:18:01;;;;;;;6.28;1.77;;;;;;;16.73;52.88;100334.19;6151439;23;20035;-34
2023/01/08 00:20:28;;;;;;;4.03;1.63;;;;;;;16.73;52.71;100335.03;6153533;23;20061;-36
2023/01/08 00:22:54;;;;;;;4.95;1.70;;;;;;;16.73;53.24;100332.34;6152480;23;20365;-35
2023/01/08 00:25:21;;;;;;;2.97;1.35;;;;;;;16.72;52.72;100330.66;6152615;23;20278;-34
2023/01/08 00:27:48;;;;;;;6.10;2.00;;;;;;;16.72;53.19;100332.47;6151977;23;20104;-34
2023/01/08 00:30:14;;;;;;;2.67;1.27;;;;;;;16.70;52.77;100319.25;6152400;23;20030;-35
2023/01/08 00:32:41;;;;;;;3.28;1.23;;;;;;;16.71;53.17;100320.09;6153262;23;20031;-34
2023/01/08 00:35:08;;;;;;;4.55;1.63;;;;;;;16.69;52.72;100312.22;6153132;23;20060;-34
2023/01/08 00:37:34;;;;;;;4.55;1.63;;;;;;;16.69;53.39;100309.56;6155041;23;20291;-34
2023/01/08 00:40:01;;;;;;;2.97;1.20;;;;;;;16.69;53.23;100301.53;6153014;23;20021;-34
2023/01/08 00:42:27;;;;;;;3.33;1.52;;;;;;;16.69;52.70;100301.53;6155825;23;20105;-34
2023/01/08 00:44:54;;;;;;;5.55;1.88;;;;;;;16.68;53.11;100289.16;6154169;23;20025;-34
2023/01/08 00:47:20;;;;;;;2.63;1.08;;;;;;;16.69;53.13;100290.81;6154715;23;20326;-35
2023/01/08 00:49:47;;;;;;;4.47;1.70;;;;;;;16.70;53.28;100299.69;6153407;23;20047;-33
2023/01/08 00:52:14;;;;;;;3.80;1.65;;;;;;;16.70;53.23;100295.16;6153794;23;20344;-35
2023/01/08 00:54:40;;;;;;;3.75;1.50;;;;;;;16.71;53.07;100304.03;6153183;23;20021;-37
2023/01/08 00:57:07;;;;;;;4.10;1.73;;;;;;;16.71;52.77;100294.16;6153344;23;20047;-34
2023/01/08 00:59:33;;;;;;;4.05;1.52;;;;;;;16.71;53.17;100288.81;6154473;23;20018;-34
2023/01/08 01:02:00;;;;;;;3.67;1.13;;;;;;;16.71;53.53;100291.47;6156004;23;20116;-34
2023/01/08 01:04:27;;;;;;;2.70;1.50;;;;;;;16.71;53.59;100283.47;6155888;23;20032;-34
2023/01/08 01:06:53;;;;;;;3.85;1.75;;;;;;;16.71;52.95;100272.75;6156255;23;20099;-35
2023/01/08 01:09:20;;;;;;;3.72;1.50;;;;;;;16.72;53.49;100279.81;6155262;23;20022;-34
2023/01/08 01:11:46;;;;;;;2.65;1.27;;;;;;;16.72;53.36;100277.13;6156141;23;20021;-34
2023/01/08 01:14:13;;;;;;;3.13;1.38;;;;;;;16.72;53.17;100274.47;6156399;23;20037;-34
2023/01/08 01:16:40;;;;;;;2.33;1.45;;;;;;;16.72;53.54;100277.13;6156587;23;20437;-37
2023/01/08 01:19:07;;;;;;;3.53;1.80;;;;;;;16.72;53.32;100271.78;6155243;23;20444;-34
2023/01/08 01:21:34;;;;;;;2.28;1.30;;;;;;;16.72;53.60;100276.25;6156391;23;20022;-34
2023/01/08 01:24:03;;;;;;;3.75;1.70;;;;;;;16.73;53.53;100264.63;6155786;23;20029;-34
2023/01/08 01:26:30;;;;;;;2.45;1.40;;;;;;;16.73;53.70;100264.63;6153968;23;20025;-34
2023/01/08 01:28:57;;;;;;;3.47;1.75;;;;;;;16.72;53.49;100279.81;6153739;23;20028;-34
2023/01/08 01:31:26;;;;;;;4.13;1.95;;;;;;;16.72;53.92;100266.44;6153865;23;20021;-34
2023/01/08 01:33:52;;;;;;;5.38;1.80;;;;;;;16.72;53.55;100271.78;6153470;23;20025;-35
2023/01/08 01:36:24;;;;;;;2.75;1.63;;;;;;;16.72;53.20;100270.91;6154573;23;20104;-34
2023/01/08 01:38:53;;;;;;;2.72;1.38;;;;;;;16.72;53.43;100263.75;6155226;23;20056;-34
2023/01/08 01:41:32;;;;;;;4.63;1.70;;;;;;;16.71;53.26;100263.88;6154411;23;20026;-34
2023/01/08 01:44:20;;;;;;;2.17;1.40;;;;;;;16.72;53.19;100268.25;6155253;23;20040;-34
2023/01/08 01:46:48;;;;;;;4.55;1.58;;;;;;;16.71;53.07;100264.72;6154623;23;20026;-34
2023/01/08 01:49:21;;;;;;;4.15;1.35;;;;;;;16.71;53.45;100278.09;6155205;23;20063;-34
2023/01/08 01:51:52;;;;;;;2.30;1.50;;;;;;;16.71;53.64;100279.94;6155552;23;20025;-34
2023/01/08 01:54:19;;;;;;;4.60;1.73;;;;;;;16.72;53.60;100284.28;6154643;23;20033;-35
2023/01/08 01:56:46;;;;;;;2.50;1.42;;;;;;;16.72;53.07;100281.63;6155041;23;20398;-33
2023/01/08 01:59:13;;;;;;;3.42;1.27;;;;;;;16.71;53.46;100288.81;6154985;23;20068;-34
2023/01/08 02:01:41;;;;;;;2.80;1.33;;;;;;;16.72;53.08;100281.63;6154813;23;20028;-34
2023/01/08 02:04:12;;;;;;;3.55;1.55;;;;;;;16.70;53.58;100276.44;6154514;23;20029;-33
2023/01/08 02:06:55;;;;;;;2.88;1.27;;;;;;;16.71;53.50;100271.91;6155298;23;20108;-35
2023/01/08 02:09:40;;;;;;;3.20;1.20;;;;;;;16.70;53.39;100270.25;6153471;23;20021;-34
2023/01/08 02:12:16;;;;;;;2.55;1.40;;;;;;;16.72;53.41;100273.59;6155166;23;20029;-34
2023/01/08 02:15:12;;;;;;;2.38;1.20;;;;;;;16.69;53.66;100271.25;6155741;23;20022;-34
2023/01/08 02:17:48;;;;;;;3.20;1.10;;;;;;;16.72;53.52;100268.25;6155269;23;20030;-34
2023/01/08 02:20:31;;;;;;;5.13;1.55;;;;;;;16.72;53.52;100266.44;6155352;23;20021;-34
2023/01/08 02:23:09;;;;;;;2.40;1.40;;;;;;;16.74;53.30;100266.28;6155401;23;20022;-34
2023/01/08 02:25:54;;;;;;;3.30;1.63;;;;;;;16.71;52.67;100264.72;6154807;23;20369;-34
2023/01/08 02:28:21;;;;;;;2.67;1.63;;;;;;;16.74;52.97;100267.13;6154416;23;20096;-36
2023/01/08 02:30:48;;;;;;;3.67;1.15;;;;;;;16.76;53.04;100266.94;6156161;23;20025;-33
2023/01/08 02:33:15;;;;;;;4.10;1.25;;;;;;;16.75;53.47;100267.97;6154918;23;20117;-33
2023/01/08 02:35:50;;;;;;;1.67;1.23;;;;;;;16.73;52.65;100260.09;6154497;23;20286;-33
2023/01/08 02:38:17;;;;;;;3.08;1.23;;;;;;;16.74;52.60;100258.25;6154646;23;20036;-34
2023/01/08 02:41:04;;;;;;;2.90;1.20;;;;;;;16.73;53.66;100251.25;6154772;23;20361;-34
2023/01/08 02:43:39;;;;;;;4.47;1.38;;;;;;;16.74;53.48;100260.94;6156710;23;20028;-33
2023/01/08 02:46:13;;;;;;;2.40;1.15;;;;;;;16.74;53.02;100260.94;6156690;23;20021;-35
2023/01/08 02:48:53;;;;;;;1.45;1.00;;;;;;;16.71;53.29;100246.00;6156680;23;20029;-33
2023/01/08 02:51:29;;;;;;;2.10;1.10;;;;;;;16.72;53.80;100250.38;6157426;23;20026;-35
2023/01/08 02:54:06;;;;;;;2.30;1.10;;;;;;;16.71;53.83;100248.66;6155999;23;20059;-35
2023/01/08 02:56:36;;;;;;;2.85;1.15;;;;;;;16.71;53.65;100254.03;6157303;23;20025;-35
2023/01/08 02:59:06;;;;;;;3.22;1.25;;;;;;;16.71;53.63;100247.84;6157678;23;20096;-35
2023/01/08 03:01:34;;;;;;;2.95;1.30;;;;;;;16.70;53.51;100249.69;6157140;23;20297;-35
2023/01/08 03:04:10;;;;;;;2.20;1.27;;;;;;;16.69;52.63;100258.72;6157171;23;20096;-35
2023/01/08 03:06:37;;;;;;;2.22;0.95;;;;;;;16.68;52.74;100257.03;6157873;23;20052;-35
2023/01/08 03:09:05;;;;;;;2.03;1.15;;;;;;;16.68;53.07;100265.06;6156052;23;20018;-35
2023/01/08 03:11:38;;;;;;;3.58;0.95;;;;;;;16.68;53.79;100251.69;6157212;23;20021;-35
2023/01/08 03:14:19;;;;;;;2.07;0.93;;;;;;;16.68;53.70;100261.53;6156389;23;20022;-35
2023/01/08 03:17:13;;;;;;;1.60;1.08;;;;;;;16.65;52.79;100252.00;6155106;23;20413;-34
2023/01/08 03:19:45;;;;;;;1.85;0.85;;;;;;;16.67;53.09;100238.44;6153325;23;20402;-34
2023/01/08 03:22:16;;;;;;;2.28;0.98;;;;;;;16.67;52.92;100235.78;6153659;23;20025;-34
2023/01/08 03:24:47;;;;;;;2.38;0.98;;;;;;;16.66;52.76;100236.78;6153614;23;20026;-36
2023/01/08 03:27:20;;;;;;;1.92;1.02;;;;;;;16.66;53.58;100237.63;6153700;23;20026;-35
2023/01/08 03:29:50;;;;;;;3.22;1.27;;;;;;;16.66;53.37;100242.13;6155171;23;20021;-35
2023/01/08 03:32:19;;;;;;;2.72;1.15;;;;;;;16.66;52.72;100242.97;6155006;23;20040;-34
2023/01/08 03:34:48;;;;;;;1.65;0.75;;;;;;;16.65;53.36;100235.13;6153399;23;20026;-35
2023/01/08 03:37:18;;;;;;;2.08;1.40;;;;;;;16.65;53.04;100240.47;6154250;23;20032;-34
2023/01/08 03:39:51;;;;;;;1.98;0.90;;;;;;;16.64;53.40;100244.94;6152107;23;20026;-34
2023/01/08 03:42:19;;;;;;;2.80;0.90;;;;;;;16.66;53.87;100242.13;6155196;23;20029;-34
2023/01/08 03:44:46;;;;;;;2.70;1.08;;;;;;;16.63;53.25;100226.38;6155350;23;20026;-34
2023/01/08 03:47:14;;;;;;;2.40;1.08;;;;;;;16.63;52.95;100232.56;6155391;23;20040;-34
2023/01/08 03:49:42;;;;;;;2.35;1.20;;;;;;;16.62;53.35;100230.91;6155161;23;20022;-34
2023/01/08 03:52:23;;;;;;;1.90;0.85;;;;;;;16.62;53.54;100219.38;6157459;23;20037;-36
2023/01/08 03:54:51;;;;;;;2.05;1.02;;;;;;;16.63;53.39;100218.38;6154186;23;20025;-36
2023/01/08 03:57:17;;;;;;;1.90;1.08;;;;;;;16.62;53.80;100238.94;6157574;23;20331;-35
2023/01/08 03:59:44;;;;;;;1.98;1.02;;;;;;;16.62;52.84;100241.59;6155927;23;20671;-34
2023/01/08 04:02:11;;;;;;;4.38;1.00;;;;;;;16.62;53.46;100244.28;6155486;23;20036;-37
2023/01/08 04:04:38;;;;;;;2.92;1.20;;;;;;;16.62;53.48;100246.97;6156268;23;20101;-36
2023/01/08 04:07:06;;;;;;;2.10;1.10;;;;;;;16.62;53.06;100246.13;6157194;23;20021;-36
2023/01/08 04:09:33;;;;;;;2.50;1.13;;;;;;;16.60;53.67;100240.91;6154661;23;20026;-35
2023/01/08 04:11:59;;;;;;;3.70;1.45;;;;;;;16.60;53.40;100232.88;6156140;23;20025;-35
2023/01/08 04:14:26;;;;;;;1.63;1.08;;;;;;;16.62;53.37;100227.41;6156030;23;20335;-36
2023/01/08 04:16:53;;;;;;;3.15;1.20;;;;;;;16.61;52.78;100225.72;6154838;23;20021;-36
2023/01/08 04:19:19;;;;;;;5.70;1.42;;;;;;;16.60;53.33;100230.22;6153102;23;20032;-36
2023/01/08 04:21:49;;;;;;;2.75;1.00;;;;;;;16.60;52.98;100227.53;6155054;23;20025;-36
2023/01/08 04:24:16;;;;;;;1.60;1.10;;;;;;;16.60;52.83;100227.53;6153029;23;20025;-35
2023/01/08 04:26:42;;;;;;;2.13;1.05;;;;;;;16.58;53.43;100218.84;6153660;23;20032;-36
2023/01/08 04:29:11;;;;;;;2.13;1.17;;;;;;;16.60;53.06;100222.19;6155781;23;20092;-36
2023/01/08 04:31:37;;;;;;;2.33;0.93;;;;;;;16.59;52.86;100220.50;6154457;23;20029;-35
2023/01/08 04:34:04;;;;;;;1.98;1.17;;;;;;;16.60;53.54;100232.06;6154990;23;20025;-35
2023/01/08 04:36:30;;;;;;;3.55;1.30;;;;;;;16.60;53.54;100230.22;6154448;23;20025;-36
2023/01/08 04:38:57;;;;;;;4.32;1.25;;;;;;;16.60;53.43;100210.66;6153661;23;20113;-33
2023/01/08 04:41:23;;;;;;;2.33;1.00;;;;;;;16.60;53.19;100211.47;6153451;23;20286;-37
2023/01/08 04:43:50;;;;;;;1.40;0.82;;;;;;;16.61;53.09;100201.66;6155625;23;20089;-34
2023/01/08 04:46:17;;;;;;;1.50;0.80;;;;;;;16.61;52.71;100202.47;6153336;23;20025;-35
2023/01/08 04:48:43;;;;;;;3.40;1.30;;;;;;;16.63;53.37;100200.47;6153480;23;20032;-37
2023/01/08 04:51:10;;;;;;;2.53;1.15;;;;;;;16.64;53.13;100198.63;6153946;23;20029;-37
2023/01/08 04:53:39;;;;;;;1.52;0.80;;;;;;;16.63;52.47;100208.50;6152881;23;20025;-37
2023/01/08 04:56:08;;;;;;;2.92;1.08;;;;;;;16.65;53.27;100203.84;6154762;23;20025;-34
2023/01/08 04:58:35;;;;;;;1.98;1.17;;;;;;;16.65;53.37;100198.50;6153608;23;20030;-34
2023/01/08 05:01:14;;;;;;;3.17;0.90;;;;;;;16.63;53.41;100200.47;6154877;23;20040;-34
2023/01/08 05:03:41;;;;;;;2.10;1.08;;;;;;;16.67;53.04;100199.16;6153538;23;20104;-34
2023/01/08 05:06:08;;;;;;;1.48;1.08;;;;;;;16.66;52.78;100197.47;6154571;23;20026;-34
2023/01/08 05:08:34;;;;;;;2.85;1.10;;;;;;;16.66;52.69;100189.44;6151697;23;20037;-34
2023/01/08 05:11:02;;;;;;;4.90;1.50;;;;;;;16.67;52.91;100188.44;6153746;23;20270;-35
2023/01/08 05:13:29;;;;;;;1.52;1.00;;;;;;;16.68;53.69;100197.31;6154861;23;20026;-34
2023/01/08 05:15:59;;;;;;;2.97;1.00;;;;;;;16.67;52.96;100195.63;6154021;23;20025;-34
2023/01/08 05:18:27;;;;;;;2.65;0.90;;;;;;;16.67;53.69;100195.63;6154345;23;20461;-36
2023/01/08 05:20:54;;;;;;;2.75;1.10;;;;;;;16.66;53.01;100205.50;6152855;23;20101;-35
2023/01/08 05:23:20;;;;;;;1.88;1.10;;;;;;;16.67;52.67;100190.28;6152004;23;20032;-34
2023/01/08 05:25:47;;;;;;;3.58;1.27;;;;;;;16.65;52.94;100193.13;6152607;23;20526;-34
2023/01/08 05:28:13;;;;;;;2.58;1.42;;;;;;;16.64;53.41;100193.28;6153490;23;20026;-34
2023/01/08 05:30:40;;;;;;;1.88;0.75;;;;;;;16.61;52.65;100199.81;6153694;23;20025;-35
2023/01/08 05:33:07;;;;;;;3.03;0.90;;;;;;;16.61;53.72;100191.78;6153243;23;20052;-34
2023/01/08 05:35:33;;;;;;;4.15;0.95;;;;;;;16.60;53.74;100197.28;6153302;23;20290;-34
2023/01/08 05:38:00;;;;;;;4.80;1.50;;;;;;;16.59;52.64;100188.41;6152696;23;20036;-33
2023/01/08 05:40:26;;;;;;;4.47;1.23;;;;;;;16.59;53.57;100195.59;6152683;23;20028;-37
2023/01/08 05:42:53;;;;;;;3.72;1.08;;;;;;;16.57;53.43;100184.25;6154191;23;20048;-35
2023/01/08 05:45:19;;;;;;;2.80;0.90;;;;;;;16.57;53.70;100193.09;6155188;23;20033;-34
2023/01/08 05:47:46;;;;;;;2.42;0.82;;;;;;;16.56;52.56;100186.03;6155022;23;20100;-36
2023/01/08 05:50:12;;;;;;;3.33;1.08;;;;;;;16.56;52.91;100187.88;6156121;23;20056;-34
2023/01/08 05:52:39;;;;;;;3.65;1.10;;;;;;;16.53;52.88;100187.22;6156403;23;20240;-35
2023/01/08 05:55:06;;;;;;;3.85;1.10;;;;;;;16.54;53.56;100190.72;6153778;23;20036;-35
2023/01/08 05:57:32;;;;;;;4.65;1.02;;;;;;;16.53;52.94;100191.75;6156648;23;20029;-35
2023/01/08 05:59:59;;;;;;;2.10;1.05;;;;;;;16.52;53.44;100192.72;6155480;23;20021;-35
2023/01/08 06:02:25;;;;;;;3.33;1.13;;;;;;;16.53;53.83;100191.75;6156351;23;20292;-35
2023/01/08 06:04:52;;;;;;;3.35;1.38;;;;;;;16.51;53.58;100197.22;6156077;23;20026;-35
2023/01/08 06:07:18;;;;;;;1.70;0.90;;;;;;;16.51;53.39;100193.72;6156234;23;20026;-35
2023/01/08 06:09:45;;;;;;;3.75;1.25;;;;;;;16.51;53.79;100197.22;6155076;23;20024;-35
2023/01/08 06:12:11;;;;;;;1.27;0.75;;;;;;;16.50;53.08;100195.56;6156605;23;20033;-35
2023/01/08 06:14:38;;;;;;;1.20;0.68;;;;;;;16.48;53.29;100197.56;6156050;23;20096;-36
2023/01/08 06:17:04;;;;;;;1.77;0.95;;;;;;;16.47;53.69;100187.00;6155048;23;20100;-35
2023/01/08 06:19:31;;;;;;;3.40;1.02;;;;;;;16.47;53.19;100190.53;6154329;23;20025;-35
2023/01/08 06:21:57;;;;;;;3.10;0.80;;;;;;;16.47;53.35;100187.84;6154533;23;20022;-36
2023/01/08 06:24:24;;;;;;;3.00;1.02;;;;;;;16.48;53.55;100191.34;6155133;23;20108;-35
2023/01/08 06:26:50;;;;;;;1.42;0.98;;;;;;;16.47;52.70;100189.69;6154415;23;20029;-36
2023/01/08 06:29:17;;;;;;;1.42;0.90;;;;;;;16.46;52.88;100188.84;6154635;23;20029;-35
2023/01/08 06:31:43;;;;;;;1.15;0.90;;;;;;;16.46;53.06;100188.84;6155921;23;20026;-35
2023/01/08 06:34:10;;;;;;;2.78;0.82;;;;;;;16.46;53.83;100201.41;6154814;23;20345;-35
2023/01/08 06:36:37;;;;;;;2.38;0.85;;;;;;;16.45;53.60;100199.72;6155328;23;20041;-35
2023/01/08 06:39:07;;;;;;;2.03;0.95;;;;;;;16.44;53.20;100190.88;6154886;23;20022;-35
2023/01/08 06:41:34;;;;;;;2.42;0.80;;;;;;;16.45;53.63;100199.72;6154343;23;20060;-35
2023/01/08 06:44:00;;;;;;;2.03;1.20;;;;;;;16.44;53.68;100203.38;6155287;23;20077;-35
2023/01/08 06:46:27;;;;;;;3.70;0.98;;;;;;;16.44;53.09;100209.59;6153437;23;20026;-35
2023/01/08 06:48:53;;;;;;;0.93;0.80;;;;;;;16.43;53.19;100205.22;6155241;23;20105;-35
2023/01/08 06:51:20;;;;;;;3.22;0.80;;;;;;;16.43;53.41;100202.53;6154798;23;20031;-35
2023/01/08 06:53:47;;;;;;;2.00;0.80;;;;;;;16.42;53.10;100197.34;6154354;23;20026;-35
2023/01/08 06:56:14;;;;;;;4.55;1.20;;;;;;;16.42;53.92;100197.34;6151572;23;20029;-35
2023/01/08 06:58:40;;;;;;;4.10;1.00;;;;;;;16.40;53.42;100196.66;6154185;23;20072;-35
2023/01/08 07:01:12;;;;;;;0.90;0.80;;;;;;;16.41;53.66;100203.72;6155012;23;20047;-35
2023/01/08 07:03:39;;;;;;;1.67;0.73;;;;;;;16.41;53.78;100201.88;6156693;23;20109;-35
2023/01/08 07:06:06;;;;;;;1.45;0.80;;;;;;;16.40;53.66;100197.53;6153833;23;20104;-35
2023/01/08 07:08:33;;;;;;;3.50;1.20;;;;;;;16.39;53.23;100195.84;6154297;23;20025;-36
2023/01/08 07:11:02;;;;;;;1.70;0.90;;;;;;;16.38;53.25;100201.34;6152403;23;20105;-35
2023/01/08 07:13:29;;;;;;;3.63;1.02;;;;;;;16.38;53.38;100198.69;6156789;23;20086;-35
2023/01/08 07:15:56;;;;;;;2.58;1.00;;;;;;;16.35;53.81;100197.16;6156822;23;20796;-35
2023/01/08 07:18:22;;;;;;;2.03;1.08;;;;;;;16.36;53.67;100197.97;6153438;23;20072;-35
2023/01/08 07:20:49;;;;;;;3.53;1.25;;;;;;;16.34;53.84;100194.66;6152451;23;20032;-35
2023/01/08 07:23:15;;;;;;;3.55;0.88;;;;;;;16.34;53.63;100190.13;6152074;23;20032;-35
2023/01/08 07:25:42;;;;;;;2.58;1.20;;;;;;;16.33;54.17;100187.63;6153116;23;20274;-35
2023/01/08 07:28:12;;;;;;;3.25;1.48;;;;;;;16.33;53.92;100184.94;6152189;23;20021;-35
2023/01/08 07:30:39;;;;;;;2.75;0.80;;;;;;;16.33;53.23;100177.75;6153144;23;20074;-35
2023/01/08 07:33:05;;;;;;;1.88;1.08;;;;;;;16.32;53.89;100177.91;6153700;23;20436;-35
2023/01/08 07:35:34;;;;;;;3.03;0.95;;;;;;;16.32;53.03;100180.56;6156328;23;20021;-35
2023/01/08 07:38:00;;;;;;;2.50;1.05;;;;;;;16.28;52.86;100174.69;6155421;23;20083;-35
2023/01/08 07:40:27;;;;;;;3.90;1.40;;;;;;;16.27;52.94;100179.22;6153949;23;20021;-35
2023/01/08 07:43:01;;;;;;;1.75;1.10;;;;;;;16.26;53.23;100169.53;6153304;23;20025;-34
2023/01/08 07:45:28;;;;;;;2.30;1.00;;;;;;;16.28;53.14;100161.31;6153600;23;20026;-35
2023/01/08 07:47:58;;;;;;;2.65;0.90;;;;;;;16.27;53.54;100168.53;6153063;23;20294;-35
2023/01/08 07:50:26;;;;;;;3.05;1.23;;;;;;;16.27;53.43;100163.16;6155438;23;20101;-35
2023/01/08 07:52:56;;;;;;;2.50;1.05;;;;;;;16.26;52.96;100166.84;6152589;23;20025;-35
2023/01/08 07:55:23;;;;;;;2.28;1.00;;;;;;;16.26;52.92;100172.19;6152781;23;20386;-36
2023/01/08 07:57:49;;;;;;;1.90;0.95;;;;;;;16.26;53.19;100171.38;6153692;23;20474;-36
2023/01/08 08:00:17;;;;;;;3.10;1.10;;;;;;;16.25;54.07;100170.53;6154249;23;20026;-35
2023/01/08 08:02:43;;;;;;;2.13;0.80;;;;;;;16.26;53.08;100174.03;6152667;23;20026;-35
2023/01/08 08:05:10;;;;;;;3.05;1.10;;;;;;;16.26;53.17;100182.91;6153948;23;20071;-35
2023/01/08 08:07:36;;;;;;;1.90;1.00;;;;;;;16.24;52.86;100182.22;6154313;23;20029;-35
2023/01/08 08:10:04;;;;;;;4.50;1.35;;;;;;;16.24;53.00;100179.56;6150599;23;20112;-35
2023/01/08 08:12:31;;;;;;;1.27;0.90;;;;;;;16.24;53.19;100184.03;6152496;23;20128;-35
2023/01/08 08:14:57;;;;;;;3.15;1.15;;;;;;;16.25;53.80;100183.06;6152880;23;20028;-35
2023/01/08 08:17:25;;;;;;;3.35;1.00;;;;;;;16.23;53.26;100183.19;6153152;23;20025;-35
2023/01/08 08:19:52;;;;;;;4.15;1.40;;;;;;;16.24;53.96;100179.56;6151997;23;20431;-36
2023/01/08 08:22:18;;;;;;;3.22;1.08;;;;;;;16.22;52.75;100181.53;6153607;23;20394;-35
2023/01/08 08:24:45;;;;;;;4.13;1.38;;;;;;;16.21;52.77;100174.50;6152622;23;20022;-35
2023/01/08 08:27:11;;;;;;;4.70;1.55;;;;;;;16.19;53.10;100176.50;6155608;23;20105;-35
2023/01/08 08:29:38;;;;;;;2.38;1.10;;;;;;;16.20;53.04;100171.97;6156174;23;20032;-35
2023/01/08 08:32:04;;;;;;;5.40;1.25;;;;;;;16.20;52.74;100167.50;6156810;23;20018;-35
2023/01/08 08:34:32;;;;;;;2.97;0.95;;;;;;;16.19;52.89;100171.16;6155918;23;20474;-35
2023/01/08 08:36:58;;;;;;;4.93;1.40;;;;;;;16.19;53.57;100176.50;6156342;23;20056;-34
2023/01/08 08:39:25;;;;;;;2.33;1.23;;;;;;;16.19;53.43;100164.97;6153707;23;20468;-35
2023/01/08 08:41:51;;;;;;;4.07;1.10;;;;;;;16.18;53.70;100156.09;6154041;23;20045;-35
2023/01/08 08:44:18;;;;;;;5.95;0.95;;;;;;;16.18;53.18;100148.09;6155427;23;20021;-36
2023/01/08 08:46:44;;;;;;;3.03;1.33;;;;;;;16.18;52.56;100142.75;6156202;23;20025;-35
2023/01/08 08:49:11;;;;;;;2.70;1.30;;;;;;;16.18;52.85;100142.75;6155672;23;20029;-36
2023/01/08 08:51:37;;;;;;;3.38;1.30;;;;;;;16.18;52.73;100142.75;6155580;23;20032;-35
2023/01/08 08:54:04;;;;;;;3.90;1.30;;;;;;;16.20;53.51;100127.41;6152106;23;20021;-35
2023/01/08 08:56:31;;;;;;;6.05;1.13;;;;;;;16.22;53.01;100130.72;6152640;23;20025;-35
2023/01/08 08:58:58;;;;;;;2.72;1.23;;;;;;;16.27;53.92;100120.38;6154613;23;20021;-35
2023/01/08 09:01:24;;;;;;;4.25;1.70;;;;;;;16.33;53.86;100126.94;6153405;23;20025;-35
2023/01/08 09:03:51;;;;;;;3.80;1.70;;;;;;;16.37;53.71;100120.28;6154032;23;20025;-36
2023/01/08 09:06:17;;;;;;;4.18;1.92;;;;;;;16.43;53.99;100124.97;6155184;23;20036;-35
2023/01/08 09:08:44;;;;;;;6.03;1.60;;;;;;;16.49;53.76;100123.50;6154780;23;20026;-35
2023/01/08 09:11:11;;;;;;;3.63;1.83;;;;;;;16.54;54.03;100123.84;6154666;23;20088;-35
2023/01/08 09:13:39;;;;;;;5.53;2.00;;;;;;;16.58;53.25;100106.47;6153843;23;20026;-34
2023/01/08 09:16:06;;;;;;;4.13;1.90;;;;;;;16.62;53.73;100110.50;6156161;23;20025;-34
2023/01/08 09:18:33;;;;;;;6.00;1.70;;;;;;;16.67;53.11;100118.03;6155591;23;20025;-34
2023/01/08 09:21:06;;;;;;;6.40;1.73;;;;;;;16.70;52.88;100110.53;6154971;23;20375;-34
2023/01/08 09:23:34;;;;;;;6.03;2.10;;;;;;;16.75;52.70;100113.59;6129468;23;20282;-34
2023/01/08 09:26:02;;;;;;;6.32;1.85;;;;;;;16.78;52.45;100115.09;6152835;23;20104;-34
2023/01/08 09:28:29;;;;;;;4.72;1.50;;;;;;;16.82;52.84;100118.28;6153360;23;20100;-34
2023/01/08 09:30:55;;;;;;;8.05;1.90;;;;;;;16.86;52.73;100119.66;6152944;23;20030;-37
2023/01/08 09:33:22;;;;;;;4.90;1.80;;;;;;;16.90;52.99;100121.00;6152402;23;20032;-34
2023/01/08 09:35:48;;;;;;;7.15;1.75;;;;;;;16.93;52.46;100115.31;6154814;23;20404;-33
2023/01/08 09:38:15;;;;;;;4.90;1.92;;;;;;;16.96;52.53;100118.47;6153072;23;20029;-34
2023/01/08 09:41:06;;;;;;;5.57;2.03;;;;;;;16.99;52.18;100120.81;6152314;23;20418;-34
2023/01/08 09:43:35;;;;;;;3.80;1.33;;;;;;;17.04;51.82;100120.34;6155019;23;20025;-34
2023/01/08 09:46:05;;;;;;;4.13;1.90;;;;;;;17.08;52.31;100119.00;6152867;23;20034;-34
2023/01/08 09:48:35;;;;;;;4.38;1.80;;;;;;;17.12;51.58;100122.19;6152207;23;20310;-34
2023/01/08 09:51:02;;;;;;;8.63;1.92;;;;;;;17.16;51.47;100132.41;6153629;23;20021;-34
2023/01/08 09:53:30;;;;;;;4.75;1.60;;;;;;;17.19;51.62;100124.03;6154278;23;20124;-34
2023/01/08 09:56:09;;;;;;;4.70;1.70;;;;;;;17.24;51.66;100123.53;6155306;23;20398;-34
2023/01/08 09:58:58;;;;;;;8.10;2.22;;;;;;;17.29;51.70;100129.25;6155384;23;20026;-35
2023/01/08 10:01:30;;;;;;;4.43;1.80;;;;;;;17.37;51.72;100123.91;6154957;23;20113;-34
2023/01/08 10:04:04;;;;;;;4.68;2.33;;;;;;;17.42;52.06;100129.59;6151777;23;20426;-34
2023/01/08 10:06:31;;;;;;;6.88;2.42;;;;;;;17.47;51.92;100121.03;6154456;23;20402;-35
2023/01/08 10:08:58;;;;;;;4.00;2.10;;;;;;;17.52;51.48;100114.16;6151657;23;20025;-34
2023/01/08 10:11:31;;;;;;;7.93;2.60;;;;;;;17.57;51.73;100112.81;6150772;23;20017;-34
2023/01/08 10:13:58;;;;;;;7.05;3.00;;;;;;;17.62;51.63;100119.38;6155642;23;20033;-35
2023/01/08 10:16:29;;;;;;;5.40;1.95;;;;;;;17.67;51.56;100117.00;6156524;23;20028;-34
2023/01/08 10:18:58;;;;;;;4.72;2.05;;;;;;;17.72;51.53;100108.47;6156669;23;20063;-34
2023/01/08 10:21:36;;;;;;;4.82;2.25;;;;;;;17.75;51.56;100098.28;6155371;23;20076;-35
2023/01/08 10:24:03;;;;;;;6.88;2.67;;;;;;;17.80;51.30;100096.94;6153118;23;20398;-34
2023/01/08 10:26:35;;;;;;;6.93;2.97;;;;;;;17.84;51.21;100095.56;6154234;23;20021;-34
2023/01/08 10:29:19;;;;;;;8.52;3.30;;;;;;;17.87;51.24;100095.25;6155481;23;20453;-35
2023/01/08 10:31:52;;;;;;;5.18;2.58;;;;;;;17.92;51.18;100083.00;6156848;23;20113;-34
2023/01/08 10:34:52;;;;;;;7.93;2.53;;;;;;;17.94;51.21;100075.63;6156009;23;20048;-35
2023/01/08 10:37:30;;;;;;;6.25;2.80;;;;;;;17.99;50.63;100083.16;6155548;23;20025;-36
2023/01/08 10:40:19;;;;;;;6.88;2.65;;;;;;;18.01;50.85;100073.09;6151596;23;20035;-35
2023/01/08 10:42:48;;;;;;;5.82;2.60;;;;;;;18.06;50.94;100075.25;6154614;23;20022;-35
2023/01/08 10:45:22;;;;;;;4.75;2.53;;;;;;;18.07;50.81;100068.88;6157224;23;20092;-37
2023/01/08 10:47:54;;;;;;;6.05;2.17;;;;;;;18.09;50.46;100065.03;6156855;23;20057;-35
2023/01/08 10:50:30;;;;;;;6.57;2.55;;;;;;;18.13;50.01;100065.50;6155240;23;20031;-35
2023/01/08 10:53:04;;;;;;;6.18;2.78;;;;;;;18.14;49.99;100056.47;6154349;23;20112;-35
2023/01/08 10:55:34;;;;;;;6.50;2.53;;;;;;;18.17;50.21;100058.78;6154293;23;20026;-37
2023/01/08 10:58:10;;;;;;;6.45;2.60;;;;;;;18.18;50.23;100053.25;6152530;23;20025;-34
2023/01/08 11:00:37;;;;;;;7.47;3.10;;;;;;;18.20;50.25;100051.22;6154353;23;20028;-35
2023/01/08 11:03:34;;;;;;;5.18;2.60;;;;;;;18.22;49.76;100053.75;6154048;23;20228;-34
2023/01/08 11:06:13;;;;;;;5.22;2.40;;;;;;;18.24;50.14;100043.66;6156391;23;20033;-34
2023/01/08 11:08:49;;;;;;;6.35;2.80;;;;;;;18.25;49.87;100040.81;6154179;23;20025;-36
2023/01/08 11:11:18;;;;;;;7.85;2.63;;;;;;;18.29;49.78;100037.78;6155333;23;20361;-35
2023/01/08 11:14:00;;;;;;;6.82;2.47;;;;;;;18.29;49.78;100029.72;6154658;23;20021;-35
2023/01/08 11:16:38;;;;;;;6.10;2.47;;;;;;;18.31;50.13;100033.91;6156300;23;20022;-35
2023/01/08 11:19:18;;;;;;;5.28;2.05;;;;;;;18.34;49.43;100035.41;6151899;23;20025;-34
2023/01/08 11:22:02;;;;;;;6.70;2.45;;;;;;;18.33;49.22;100021.19;6151834;23;20024;-35
2023/01/08 11:24:35;;;;;;;7.95;2.70;;;;;;;18.35;49.71;100012.94;6153241;23;20028;-35
2023/01/08 11:27:08;;;;;;;7.15;2.67;;;;;;;18.36;49.93;100023.47;6153987;23;20104;-35
2023/01/08 11:29:48;;;;;;;5.53;2.10;;;;;;;18.37;49.41;100024.31;6155555;23;20032;-34
2023/01/08 11:32:24;;;;;;;7.90;3.17;;;;;;;18.40;49.76;100018.59;6153258;23;20017;-34
2023/01/08 11:34:59;;;;;;;6.05;2.88;;;;;;;18.40;49.96;100022.13;6153708;23;20028;-35